createdAt,value
2018-03-07T00:00:35.239Z,13.37
2018-03-07T00:01:39.349Z,13.37
2018-03-07T00:02:42.672Z,13.37
2018-03-07T00:03:46.107Z,13.37
2018-03-07T00:04:49.656Z,13.37
2018-03-07T00:05:53.118Z,13.37
2018-03-07T00:06:56.531Z,13.38
2018-03-07T00:07:59.885Z,13.38
2018-03-07T00:09:03.317Z,13.38
2018-03-07T00:10:06.726Z,13.38
2018-03-07T00:11:10.236Z,13.39
2018-03-07T00:12:14.308Z,13.38
2018-03-07T00:13:17.713Z,13.38
2018-03-07T00:14:21.232Z,13.38
2018-03-07T00:15:25.304Z,13.37
2018-03-07T00:16:28.735Z,13.36
2018-03-07T00:17:32.114Z,13.36
2018-03-07T00:18:35.544Z,13.35
2018-03-07T00:19:38.971Z,13.35
2018-03-07T00:20:42.286Z,13.36
2018-03-07T00:21:45.673Z,13.36
2018-03-07T00:22:49.023Z,13.36
2018-03-07T00:23:52.337Z,13.36
2018-03-07T00:24:55.722Z,13.35
2018-03-07T00:25:59.159Z,13.35
2018-03-07T00:27:02.584Z,13.34
2018-03-07T00:28:06.038Z,13.33
2018-03-07T00:29:09.424Z,13.33
2018-03-07T00:30:12.908Z,13.32
2018-03-07T00:31:16.313Z,13.31
2018-03-07T00:32:19.697Z,13.30
2018-03-07T00:33:23.223Z,13.30
2018-03-07T00:34:26.561Z,13.31
2018-03-07T00:35:29.876Z,13.29
2018-03-07T00:36:33.293Z,13.29
2018-03-07T00:37:37.077Z,13.29
2018-03-07T00:38:40.488Z,13.29
2018-03-07T00:39:43.860Z,13.28
2018-03-07T00:40:47.284Z,13.29
2018-03-07T00:41:50.637Z,13.30
2018-03-07T00:42:54.582Z,13.28
2018-03-07T00:43:57.917Z,13.27
2018-03-07T00:45:01.390Z,13.28
2018-03-07T00:46:04.695Z,13.27
2018-03-07T00:47:08.154Z,13.27
2018-03-07T00:48:11.656Z,13.27
2018-03-07T00:49:15.998Z,13.26
2018-03-07T00:50:19.372Z,13.25
2018-03-07T00:51:22.842Z,13.25
2018-03-07T00:52:26.336Z,13.24
2018-03-07T00:53:29.717Z,13.23
2018-03-07T00:54:33.204Z,13.22
2018-03-07T00:55:36.617Z,13.21
2018-03-07T00:56:40.058Z,13.21
2018-03-07T00:57:43.380Z,13.20
2018-03-07T00:58:47.017Z,13.21
2018-03-07T00:59:50.563Z,13.20
2018-03-07T01:00:54.046Z,13.20
2018-03-07T01:01:57.449Z,13.19
2018-03-07T01:03:00.885Z,13.18
2018-03-07T01:04:04.267Z,13.18
2018-03-07T01:05:07.746Z,13.17
2018-03-07T01:06:12.691Z,13.16
2018-03-07T01:07:16.032Z,13.14
2018-03-07T01:08:19.438Z,13.14
2018-03-07T01:09:22.772Z,13.13
2018-03-07T01:10:26.229Z,13.12
2018-03-07T01:11:29.614Z,13.11
2018-03-07T01:12:32.988Z,13.11
2018-03-07T01:13:36.411Z,13.11
2018-03-07T01:14:39.881Z,13.10
2018-03-07T01:15:43.328Z,13.09
2018-03-07T01:16:46.649Z,13.08
2018-03-07T01:17:50.122Z,13.07
2018-03-07T01:18:53.497Z,13.07
2018-03-07T01:19:56.829Z,13.06
2018-03-07T01:21:00.194Z,13.05
2018-03-07T01:22:03.623Z,13.05
2018-03-07T01:23:07.062Z,13.04
2018-03-07T01:24:10.397Z,13.04
2018-03-07T01:25:13.721Z,13.04
2018-03-07T01:26:17.104Z,13.03
2018-03-07T01:27:20.517Z,13.02
2018-03-07T01:28:23.876Z,13.01
2018-03-07T01:29:27.259Z,13.00
2018-03-07T01:30:30.584Z,13.00
2018-03-07T01:31:34.135Z,12.99
2018-03-07T01:32:37.467Z,12.98
2018-03-07T01:33:40.805Z,12.96
2018-03-07T01:34:44.128Z,12.94
2018-03-07T01:35:47.449Z,12.94
2018-03-07T01:36:50.997Z,12.92
2018-03-07T01:37:54.490Z,12.89
2018-03-07T01:38:57.864Z,12.87
2018-03-07T01:40:01.197Z,12.84
2018-03-07T01:41:04.628Z,12.82
2018-03-07T01:42:08.042Z,12.79
2018-03-07T01:43:11.479Z,12.75
2018-03-07T01:44:14.854Z,12.72
2018-03-07T01:45:18.262Z,12.68
2018-03-07T01:46:21.572Z,12.65
2018-03-07T01:47:25.003Z,12.62
2018-03-07T01:48:28.315Z,12.58
2018-03-07T01:49:33.251Z,12.55
2018-03-07T01:50:37.435Z,12.50
2018-03-07T01:51:52.430Z,12.46
2018-03-07T01:52:56.864Z,12.37
2018-03-07T01:54:01.049Z,12.35
2018-03-07T01:55:04.494Z,12.32
2018-03-07T01:56:07.851Z,12.29
2018-03-07T01:57:11.271Z,12.27
2018-03-07T01:58:14.645Z,12.25
2018-03-07T01:59:18.038Z,12.22
2018-03-07T02:00:21.497Z,12.19
2018-03-07T02:01:24.901Z,12.18
2018-03-07T02:02:28.369Z,12.16
2018-03-07T02:03:31.869Z,12.13
2018-03-07T02:04:35.301Z,12.10
2018-03-07T02:05:38.667Z,12.09
2018-03-07T02:06:41.996Z,12.07
2018-03-07T02:07:45.347Z,12.04
2018-03-07T02:08:48.792Z,12.02
2018-03-07T02:09:52.213Z,12.00
2018-03-07T02:10:55.596Z,11.97
2018-03-07T02:11:59.066Z,11.95
2018-03-07T02:13:02.446Z,11.93
2018-03-07T02:14:05.954Z,11.92
2018-03-07T02:15:09.282Z,11.89
2018-03-07T02:16:12.668Z,11.87
2018-03-07T02:17:16.019Z,11.86
2018-03-07T02:18:19.340Z,11.83
2018-03-07T02:19:22.867Z,11.81
2018-03-07T02:20:26.234Z,11.79
2018-03-07T02:21:29.624Z,11.78
2018-03-07T02:22:33.011Z,11.77
2018-03-07T02:23:36.388Z,11.75
2018-03-07T02:24:39.969Z,11.74
2018-03-07T02:25:43.305Z,11.72
2018-03-07T02:26:46.630Z,11.70
2018-03-07T02:27:50.008Z,11.69
2018-03-07T02:28:53.321Z,11.67
2018-03-07T02:29:56.713Z,11.66
2018-03-07T02:31:00.023Z,11.64
2018-03-07T02:32:03.388Z,11.63
2018-03-07T02:33:06.692Z,11.62
2018-03-07T02:34:10.004Z,11.60
2018-03-07T02:35:13.485Z,11.59
2018-03-07T02:36:28.634Z,11.58
2018-03-07T02:37:31.964Z,11.53
2018-03-07T02:38:35.377Z,11.53
2018-03-07T02:39:38.760Z,11.54
2018-03-07T02:40:42.173Z,11.53
2018-03-07T02:41:45.502Z,11.53
2018-03-07T02:42:48.841Z,11.52
2018-03-07T02:43:52.239Z,11.52
2018-03-07T02:44:55.753Z,11.52
2018-03-07T02:45:59.105Z,11.52
2018-03-07T02:47:02.429Z,11.53
2018-03-07T02:48:05.788Z,11.53
2018-03-07T02:49:09.215Z,11.54
2018-03-07T02:50:14.568Z,11.56
2018-03-07T02:51:17.944Z,11.56
2018-03-07T02:52:21.262Z,11.58
2018-03-07T02:53:25.047Z,11.58
2018-03-07T02:54:28.378Z,11.57
2018-03-07T02:55:31.719Z,11.57
2018-03-07T02:56:35.115Z,11.56
2018-03-07T02:57:38.468Z,11.54
2018-03-07T02:58:41.810Z,11.53
2018-03-07T02:59:45.149Z,11.53
2018-03-07T03:00:48.489Z,11.51
2018-03-07T03:01:51.886Z,11.49
2018-03-07T03:02:55.221Z,11.48
2018-03-07T03:03:58.608Z,11.45
2018-03-07T03:05:01.946Z,11.44
2018-03-07T03:06:05.267Z,11.41
2018-03-07T03:07:09.437Z,11.40
2018-03-07T03:08:12.749Z,11.38
2018-03-07T03:09:16.140Z,11.37
2018-03-07T03:10:19.435Z,11.35
2018-03-07T03:11:22.769Z,11.35
2018-03-07T03:12:26.232Z,11.34
2018-03-07T03:13:29.625Z,11.32
2018-03-07T03:14:33.050Z,11.30
2018-03-07T03:15:36.461Z,11.30
2018-03-07T03:16:39.829Z,11.29
2018-03-07T03:17:43.187Z,11.29
2018-03-07T03:18:46.582Z,11.29
2018-03-07T03:19:49.912Z,11.29
2018-03-07T03:20:54.263Z,11.30
2018-03-07T03:22:00.155Z,11.29
2018-03-07T03:23:03.498Z,11.30
2018-03-07T03:24:06.887Z,11.30
2018-03-07T03:25:11.502Z,11.30
2018-03-07T03:26:14.970Z,11.30
2018-03-07T03:27:18.313Z,11.31
2018-03-07T03:28:21.691Z,11.32
2018-03-07T03:29:25.016Z,11.31
2018-03-07T03:30:28.769Z,11.29
2018-03-07T03:31:32.092Z,11.27
2018-03-07T03:32:35.414Z,11.25
2018-03-07T03:33:38.781Z,11.25
2018-03-07T03:34:42.111Z,11.23
2018-03-07T03:35:45.503Z,11.23
2018-03-07T03:36:48.945Z,11.22
2018-03-07T03:37:52.273Z,11.22
2018-03-07T03:38:55.629Z,11.21
2018-03-07T03:39:58.997Z,11.20
2018-03-07T03:41:02.292Z,11.20
2018-03-07T03:42:05.779Z,11.19
2018-03-07T03:43:09.156Z,11.18
2018-03-07T03:44:12.538Z,11.17
2018-03-07T03:45:15.965Z,11.16
2018-03-07T03:46:19.422Z,11.17
2018-03-07T03:47:23.577Z,11.16
2018-03-07T03:48:26.989Z,11.15
2018-03-07T03:49:30.412Z,11.16
2018-03-07T03:50:34.596Z,11.16
2018-03-07T03:51:38.025Z,11.16
2018-03-07T03:52:41.347Z,11.16
2018-03-07T03:53:44.753Z,11.15
2018-03-07T03:54:48.182Z,11.14
2018-03-07T03:55:51.502Z,11.13
2018-03-07T03:56:54.910Z,11.12
2018-03-07T03:57:58.287Z,11.09
2018-03-07T03:59:01.680Z,11.07
2018-03-07T04:00:05.021Z,11.06
2018-03-07T04:01:08.424Z,11.04
2018-03-07T04:02:11.836Z,11.02
2018-03-07T04:03:15.228Z,11.00
2018-03-07T04:04:18.572Z,10.97
2018-03-07T04:05:21.960Z,10.95
2018-03-07T04:06:25.315Z,10.92
2018-03-07T04:07:28.682Z,10.90
2018-03-07T04:08:32.080Z,10.88
2018-03-07T04:09:35.402Z,10.87
2018-03-07T04:10:38.835Z,10.85
2018-03-07T04:11:42.169Z,10.83
2018-03-07T04:12:45.493Z,10.81
2018-03-07T04:13:48.876Z,10.80
2018-03-07T04:14:52.225Z,10.78
2018-03-07T04:15:55.626Z,10.77
2018-03-07T04:16:58.984Z,10.76
2018-03-07T04:18:02.368Z,10.74
2018-03-07T04:19:05.771Z,10.72
2018-03-07T04:20:09.219Z,10.71
2018-03-07T04:21:12.579Z,10.70
2018-03-07T04:22:15.936Z,10.69
2018-03-07T04:23:19.322Z,10.68
2018-03-07T04:24:22.679Z,10.66
2018-03-07T04:25:26.157Z,10.65
2018-03-07T04:26:29.578Z,10.63
2018-03-07T04:27:32.988Z,10.61
2018-03-07T04:28:36.296Z,10.59
2018-03-07T04:29:39.759Z,10.59
2018-03-07T04:30:43.069Z,10.57
2018-03-07T04:31:46.501Z,10.55
2018-03-07T04:32:49.887Z,10.55
2018-03-07T04:33:53.317Z,10.54
2018-03-07T04:34:56.664Z,10.53
2018-03-07T04:36:00.094Z,10.53
2018-03-07T04:37:03.502Z,10.52
2018-03-07T04:38:06.868Z,10.51
2018-03-07T04:39:10.250Z,10.51
2018-03-07T04:40:13.621Z,10.51
2018-03-07T04:41:16.961Z,10.50
2018-03-07T04:42:20.397Z,10.50
2018-03-07T04:43:23.731Z,10.50
2018-03-07T04:44:27.173Z,10.51
2018-03-07T04:45:30.492Z,10.51
2018-03-07T04:46:33.911Z,10.52
2018-03-07T04:47:38.124Z,10.53
2018-03-07T04:48:41.677Z,10.53
2018-03-07T04:49:45.018Z,10.54
2018-03-07T04:50:49.324Z,10.55
2018-03-07T04:51:52.697Z,10.54
2018-03-07T04:52:56.103Z,10.54
2018-03-07T04:53:59.483Z,10.55
2018-03-07T04:55:02.933Z,10.54
2018-03-07T04:56:06.813Z,10.55
2018-03-07T04:57:10.194Z,10.53
2018-03-07T04:58:13.668Z,10.52
2018-03-07T04:59:17.135Z,10.50
2018-03-07T05:00:20.666Z,10.49
2018-03-07T05:01:23.987Z,10.47
2018-03-07T05:02:27.357Z,10.46
2018-03-07T05:03:30.847Z,10.43
2018-03-07T05:04:34.243Z,10.42
2018-03-07T05:05:37.590Z,10.41
2018-03-07T05:06:40.939Z,10.40
2018-03-07T05:07:44.393Z,10.39
2018-03-07T05:08:47.782Z,10.36
2018-03-07T05:09:51.473Z,10.35
2018-03-07T05:10:54.813Z,10.33
2018-03-07T05:11:58.248Z,10.32
2018-03-07T05:13:01.604Z,10.31
2018-03-07T05:14:05.424Z,10.29
2018-03-07T05:15:08.795Z,10.27
2018-03-07T05:16:12.137Z,10.26
2018-03-07T05:17:15.461Z,10.26
2018-03-07T05:18:18.799Z,10.25
2018-03-07T05:19:22.314Z,10.23
2018-03-07T05:20:25.653Z,10.22
2018-03-07T05:21:29.024Z,10.22
2018-03-07T05:22:32.382Z,10.21
2018-03-07T05:23:35.978Z,10.20
2018-03-07T05:24:39.356Z,10.20
2018-03-07T05:25:42.772Z,10.18
2018-03-07T05:26:46.142Z,10.18
2018-03-07T05:27:50.296Z,10.18
2018-03-07T05:28:53.721Z,10.18
2018-03-07T05:29:57.140Z,10.18
2018-03-07T05:31:00.448Z,10.19
2018-03-07T05:32:03.782Z,10.19
2018-03-07T05:33:07.109Z,10.20
2018-03-07T05:34:10.488Z,10.20
2018-03-07T05:35:13.876Z,10.22
2018-03-07T05:36:17.314Z,10.23
2018-03-07T05:37:20.667Z,10.23
2018-03-07T05:38:24.008Z,10.25
2018-03-07T05:39:27.345Z,10.25
2018-03-07T05:40:30.720Z,10.26
2018-03-07T05:41:34.027Z,10.28
2018-03-07T05:42:37.364Z,10.29
2018-03-07T05:43:40.693Z,10.30
2018-03-07T05:44:44.042Z,10.31
2018-03-07T05:45:47.505Z,10.32
2018-03-07T05:46:50.839Z,10.33
2018-03-07T05:47:54.145Z,10.34
2018-03-07T05:48:57.598Z,10.34
2018-03-07T05:50:00.902Z,10.36
2018-03-07T05:51:05.192Z,10.37
2018-03-07T05:52:08.535Z,10.36
2018-03-07T05:53:11.904Z,10.38
2018-03-07T05:54:15.303Z,10.39
2018-03-07T05:55:18.686Z,10.40
2018-03-07T05:56:22.040Z,10.41
2018-03-07T05:57:25.430Z,10.41
2018-03-07T05:58:28.847Z,10.41
2018-03-07T05:59:32.202Z,10.41
2018-03-07T06:00:35.592Z,10.41
2018-03-07T06:01:38.959Z,10.40
2018-03-07T06:02:42.378Z,10.41
2018-03-07T06:03:45.738Z,10.40
2018-03-07T06:04:49.110Z,10.40
2018-03-07T06:05:52.446Z,10.39
2018-03-07T06:06:56.081Z,10.38
2018-03-07T06:07:59.409Z,10.36
2018-03-07T06:09:02.753Z,10.34
2018-03-07T06:10:06.164Z,10.34
2018-03-07T06:11:09.484Z,10.33
2018-03-07T06:12:12.887Z,10.32
2018-03-07T06:13:16.246Z,10.30
2018-03-07T06:14:20.585Z,10.29
2018-03-07T06:15:24.036Z,10.27
2018-03-07T06:16:27.358Z,10.26
2018-03-07T06:17:30.712Z,10.26
2018-03-07T06:18:34.068Z,10.25
2018-03-07T06:19:37.402Z,10.24
2018-03-07T06:20:40.716Z,10.24
2018-03-07T06:21:44.028Z,10.24
2018-03-07T06:22:47.434Z,10.24
2018-03-07T06:23:50.785Z,10.25
2018-03-07T06:24:54.200Z,10.26
2018-03-07T06:25:57.588Z,10.28
2018-03-07T06:27:00.975Z,10.29
2018-03-07T06:28:04.319Z,10.33
2018-03-07T06:29:07.747Z,10.33
2018-03-07T06:30:11.066Z,10.35
2018-03-07T06:31:14.377Z,10.37
2018-03-07T06:32:17.830Z,10.39
2018-03-07T06:33:21.206Z,10.42
2018-03-07T06:34:24.613Z,10.46
2018-03-07T06:35:27.971Z,10.51
2018-03-07T06:36:31.301Z,10.55
2018-03-07T06:37:34.646Z,10.59
2018-03-07T06:38:38.019Z,10.63
2018-03-07T06:39:41.325Z,10.67
2018-03-07T06:40:44.688Z,10.71
2018-03-07T06:41:48.147Z,10.75
2018-03-07T06:42:51.552Z,10.79
2018-03-07T06:43:55.062Z,10.83
2018-03-07T06:44:58.373Z,10.87
2018-03-07T06:46:01.930Z,10.91
2018-03-07T06:47:05.257Z,10.93
2018-03-07T06:48:08.725Z,10.95
2018-03-07T06:49:12.109Z,10.97
2018-03-07T06:50:15.563Z,10.98
2018-03-07T06:51:19.147Z,11.00
2018-03-07T06:52:22.716Z,11.01
2018-03-07T06:53:33.127Z,11.02
2018-03-07T06:54:37.155Z,11.00
2018-03-07T06:55:40.664Z,11.01
2018-03-07T06:56:44.111Z,11.04
2018-03-07T06:57:47.513Z,11.07
2018-03-07T06:58:50.955Z,11.09
2018-03-07T06:59:54.366Z,11.12
2018-03-07T07:00:57.743Z,11.17
2018-03-07T07:02:01.191Z,11.20
2018-03-07T07:03:04.512Z,11.25
2018-03-07T07:04:07.819Z,11.33
2018-03-07T07:05:11.228Z,11.39
2018-03-07T07:06:14.562Z,11.45
2018-03-07T07:07:17.882Z,11.47
2018-03-07T07:08:21.192Z,11.49
2018-03-07T07:09:24.521Z,11.52
2018-03-07T07:10:27.964Z,11.56
2018-03-07T07:11:31.333Z,11.59
2018-03-07T07:12:34.688Z,11.64
2018-03-07T07:13:38.089Z,11.70
2018-03-07T07:14:41.475Z,11.74
2018-03-07T07:15:44.918Z,11.77
2018-03-07T07:16:48.653Z,11.80
2018-03-07T07:17:52.314Z,11.82
2018-03-07T07:18:55.758Z,11.83
2018-03-07T07:19:59.101Z,11.83
2018-03-07T07:21:02.597Z,11.82
2018-03-07T07:22:05.989Z,11.82
2018-03-07T07:23:09.386Z,11.80
2018-03-07T07:24:12.789Z,11.78
2018-03-07T07:25:16.232Z,11.74
2018-03-07T07:26:19.636Z,11.71
2018-03-07T07:27:23.059Z,11.69
2018-03-07T07:28:26.608Z,11.67
2018-03-07T07:29:29.943Z,11.64
2018-03-07T07:30:33.306Z,11.62
2018-03-07T07:31:36.695Z,11.60
2018-03-07T07:32:40.073Z,11.56
2018-03-07T07:33:43.574Z,11.53
2018-03-07T07:34:46.947Z,11.49
2018-03-07T07:35:50.381Z,11.47
2018-03-07T07:36:54.000Z,11.45
2018-03-07T07:37:57.328Z,11.43
2018-03-07T07:39:01.405Z,11.42
2018-03-07T07:40:05.058Z,11.40
2018-03-07T07:41:08.436Z,11.38
2018-03-07T07:42:12.243Z,11.37
2018-03-07T07:43:15.550Z,11.36
2018-03-07T07:44:18.939Z,11.35
2018-03-07T07:45:22.251Z,11.35
2018-03-07T07:46:25.595Z,11.35
2018-03-07T07:47:29.022Z,11.35
2018-03-07T07:48:32.509Z,11.36
2018-03-07T07:49:35.872Z,11.37
2018-03-07T07:50:39.184Z,11.39
2018-03-07T07:51:43.485Z,11.40
2018-03-07T07:52:46.897Z,11.40
2018-03-07T07:53:50.324Z,11.41
2018-03-07T07:54:53.744Z,11.42
2018-03-07T07:55:57.074Z,11.41
2018-03-07T07:57:00.464Z,11.41
2018-03-07T07:58:04.692Z,11.42
2018-03-07T07:59:09.603Z,11.41
2018-03-07T08:00:15.381Z,11.42
2018-03-07T08:01:18.733Z,11.42
2018-03-07T08:02:22.093Z,11.43
2018-03-07T08:03:25.483Z,11.43
2018-03-07T08:04:28.943Z,11.43
2018-03-07T08:05:32.419Z,11.43
2018-03-07T08:06:35.957Z,11.44
2018-03-07T08:07:39.332Z,11.45
2018-03-07T08:08:42.677Z,11.46
2018-03-07T08:09:46.067Z,11.47
2018-03-07T08:10:49.402Z,11.48
2018-03-07T08:11:52.746Z,11.49
2018-03-07T08:12:56.122Z,11.49
2018-03-07T08:13:59.704Z,11.50
2018-03-07T08:15:03.103Z,11.48
2018-03-07T08:16:06.660Z,11.48
2018-03-07T08:17:10.034Z,11.47
2018-03-07T08:18:13.427Z,11.48
2018-03-07T08:19:16.745Z,11.47
2018-03-07T08:20:20.119Z,11.46
2018-03-07T08:21:23.607Z,11.44
2018-03-07T08:22:27.096Z,11.43
2018-03-07T08:23:30.525Z,11.41
2018-03-07T08:24:35.475Z,11.40
2018-03-07T08:25:38.865Z,11.39
2018-03-07T08:26:42.173Z,11.39
2018-03-07T08:27:45.514Z,11.40
2018-03-07T08:28:48.919Z,11.41
2018-03-07T08:29:53.199Z,11.42
2018-03-07T08:30:56.512Z,11.43
2018-03-07T08:31:59.868Z,11.44
2018-03-07T08:33:03.233Z,11.45
2018-03-07T08:34:06.580Z,11.46
2018-03-07T08:35:10.074Z,11.47
2018-03-07T08:36:13.440Z,11.49
2018-03-07T08:37:16.843Z,11.50
2018-03-07T08:38:20.260Z,11.50
2018-03-07T08:39:23.857Z,11.51
2018-03-07T08:40:27.338Z,11.50
2018-03-07T08:41:30.646Z,11.50
2018-03-07T08:42:34.024Z,11.50
2018-03-07T08:43:37.443Z,11.50
2018-03-07T08:44:40.850Z,11.50
2018-03-07T08:45:44.203Z,11.52
2018-03-07T08:46:47.522Z,11.53
2018-03-07T08:47:51.038Z,11.54
2018-03-07T08:48:54.425Z,11.55
2018-03-07T08:49:57.797Z,11.57
2018-03-07T08:51:01.137Z,11.59
2018-03-07T08:52:05.363Z,11.61
2018-03-07T08:53:08.728Z,11.66
2018-03-07T08:54:12.148Z,11.69
2018-03-07T08:55:15.488Z,11.74
2018-03-07T08:56:18.839Z,11.80
2018-03-07T08:57:22.243Z,11.86
2018-03-07T08:58:26.197Z,11.93
2018-03-07T08:59:29.563Z,11.98
2018-03-07T09:00:32.937Z,12.05
2018-03-07T09:01:36.399Z,12.13
2018-03-07T09:02:39.701Z,12.20
2018-03-07T09:03:43.017Z,12.26
2018-03-07T09:04:46.375Z,12.32
2018-03-07T09:05:49.719Z,12.38
2018-03-07T09:06:53.219Z,12.43
2018-03-07T09:07:56.532Z,12.48
2018-03-07T09:08:59.916Z,12.52
2018-03-07T09:10:03.275Z,12.56
2018-03-07T09:11:06.714Z,12.60
2018-03-07T09:12:10.042Z,12.63
2018-03-07T09:13:13.358Z,12.67
2018-03-07T09:14:16.684Z,12.68
2018-03-07T09:15:20.057Z,12.71
2018-03-07T09:16:24.360Z,12.71
2018-03-07T09:17:27.687Z,12.75
2018-03-07T09:18:31.056Z,12.77
2018-03-07T09:19:34.423Z,12.77
2018-03-07T09:20:38.228Z,12.78
2018-03-07T09:21:41.509Z,12.77
2018-03-07T09:22:45.609Z,12.77
2018-03-07T09:23:48.924Z,12.75
2018-03-07T09:24:52.240Z,12.73
2018-03-07T09:25:55.563Z,12.71
2018-03-07T09:26:58.912Z,12.67
2018-03-07T09:28:02.281Z,12.63
2018-03-07T09:29:05.788Z,12.60
2018-03-07T09:30:09.148Z,12.57
2018-03-07T09:31:12.556Z,12.55
2018-03-07T09:32:15.939Z,12.52
2018-03-07T09:33:19.345Z,12.49
2018-03-07T09:34:22.792Z,12.47
2018-03-07T09:35:26.137Z,12.44
2018-03-07T09:36:29.501Z,12.42
2018-03-07T09:37:32.817Z,12.40
2018-03-07T09:38:36.185Z,12.38
2018-03-07T09:39:39.661Z,12.39
2018-03-07T09:40:43.052Z,12.41
2018-03-07T09:41:46.517Z,12.43
2018-03-07T09:42:49.880Z,12.48
2018-03-07T09:43:53.310Z,12.52
2018-03-07T09:44:56.690Z,12.57
2018-03-07T09:46:00.005Z,12.61
2018-03-07T09:47:03.328Z,12.66
2018-03-07T09:48:06.708Z,12.70
2018-03-07T09:49:10.147Z,12.72
2018-03-07T09:50:13.488Z,12.74
2018-03-07T09:51:16.899Z,12.74
2018-03-07T09:52:20.426Z,12.76
2018-03-07T09:53:23.769Z,12.76
2018-03-07T09:54:27.126Z,12.78
2018-03-07T09:55:30.467Z,12.80
2018-03-07T09:56:33.907Z,12.81
2018-03-07T09:57:37.315Z,12.79
2018-03-07T09:58:40.645Z,12.79
2018-03-07T09:59:44.084Z,12.79
2018-03-07T10:00:48.263Z,12.77
2018-03-07T10:01:51.663Z,12.75
2018-03-07T10:02:55.000Z,12.73
2018-03-07T10:03:58.390Z,12.71
2018-03-07T10:05:03.585Z,12.70
2018-03-07T10:06:06.914Z,12.70
2018-03-07T10:07:10.319Z,12.69
2018-03-07T10:08:13.730Z,12.68
2018-03-07T10:09:17.108Z,12.67
2018-03-07T10:10:20.458Z,12.68
2018-03-07T10:11:23.786Z,12.69
2018-03-07T10:12:27.123Z,12.67
2018-03-07T10:13:30.428Z,12.67
2018-03-07T10:14:33.796Z,12.66
2018-03-07T10:15:37.175Z,12.65
2018-03-07T10:16:40.585Z,12.66
2018-03-07T10:17:43.898Z,12.64
2018-03-07T10:18:47.253Z,12.64
2018-03-07T10:19:50.765Z,12.63
2018-03-07T10:20:54.158Z,12.64
2018-03-07T10:21:57.549Z,12.63
2018-03-07T10:23:00.857Z,12.65
2018-03-07T10:24:04.310Z,12.65
2018-03-07T10:25:07.631Z,12.68
2018-03-07T10:26:11.052Z,12.71
2018-03-07T10:27:14.391Z,12.73
2018-03-07T10:28:17.716Z,12.75
2018-03-07T10:29:21.071Z,12.78
2018-03-07T10:30:24.533Z,12.81
2018-03-07T10:31:27.904Z,12.85
2018-03-07T10:32:31.291Z,12.87
2018-03-07T10:33:34.628Z,12.91
2018-03-07T10:34:37.957Z,12.93
2018-03-07T10:35:41.671Z,12.96
2018-03-07T10:36:45.081Z,13.01
2018-03-07T10:37:48.421Z,13.06
2018-03-07T10:38:51.773Z,13.10
2018-03-07T10:39:55.221Z,13.14
2018-03-07T10:40:58.672Z,13.19
2018-03-07T10:42:02.169Z,13.20
2018-03-07T10:43:05.528Z,13.22
2018-03-07T10:44:08.890Z,13.23
2018-03-07T10:45:12.598Z,13.26
2018-03-07T10:46:15.977Z,13.28
2018-03-07T10:47:19.396Z,13.29
2018-03-07T10:48:22.713Z,13.30
2018-03-07T10:49:26.067Z,13.32
2018-03-07T10:50:29.422Z,13.34
2018-03-07T10:51:32.780Z,13.36
2018-03-07T10:52:36.965Z,13.38
2018-03-07T10:53:40.386Z,13.38
2018-03-07T10:54:43.790Z,13.40
2018-03-07T10:55:47.332Z,13.42
2018-03-07T10:56:50.929Z,13.43
2018-03-07T10:57:54.409Z,13.43
2018-03-07T10:58:57.889Z,13.43
2018-03-07T11:00:01.306Z,13.42
2018-03-07T11:01:04.686Z,13.41
2018-03-07T11:02:08.142Z,13.39
2018-03-07T11:03:11.555Z,13.34
2018-03-07T11:04:14.954Z,13.31
2018-03-07T11:05:18.288Z,13.28
2018-03-07T11:06:21.815Z,13.28
2018-03-07T11:07:25.159Z,13.28
2018-03-07T11:08:29.194Z,13.28
2018-03-07T11:09:32.722Z,13.29
2018-03-07T11:10:36.194Z,13.29
2018-03-07T11:11:40.290Z,13.29
2018-03-07T11:12:43.941Z,13.30
2018-03-07T11:13:47.421Z,13.29
2018-03-07T11:14:50.777Z,13.28
2018-03-07T11:15:54.266Z,13.28
2018-03-07T11:16:57.633Z,13.26
2018-03-07T11:18:01.023Z,13.26
2018-03-07T11:19:04.419Z,13.25
2018-03-07T11:20:07.784Z,13.25
2018-03-07T11:21:11.176Z,13.25
2018-03-07T11:22:14.536Z,13.25
2018-03-07T11:23:17.927Z,13.25
2018-03-07T11:24:21.394Z,13.24
2018-03-07T11:25:24.852Z,13.22
2018-03-07T11:26:28.197Z,13.20
2018-03-07T11:27:31.604Z,13.19
2018-03-07T11:28:35.229Z,13.18
2018-03-07T11:29:38.592Z,13.18
2018-03-07T11:30:42.024Z,13.17
2018-03-07T11:31:45.479Z,13.16
2018-03-07T11:32:49.532Z,13.15
2018-03-07T11:33:52.945Z,13.12
2018-03-07T11:34:56.358Z,13.10
2018-03-07T11:35:59.789Z,13.08
2018-03-07T11:37:03.133Z,13.08
2018-03-07T11:38:06.518Z,13.06
2018-03-07T11:39:09.969Z,13.07
2018-03-07T11:40:13.380Z,13.07
2018-03-07T11:41:19.682Z,13.05
2018-03-07T11:42:23.021Z,13.03
2018-03-07T11:43:26.452Z,13.03
2018-03-07T11:44:29.773Z,13.01
2018-03-07T11:45:33.183Z,12.99
2018-03-07T11:46:36.646Z,12.97
2018-03-07T11:47:40.160Z,12.94
2018-03-07T11:48:43.515Z,12.94
2018-03-07T11:49:46.950Z,12.95
2018-03-07T11:50:50.518Z,12.95
2018-03-07T11:51:53.976Z,12.96
2018-03-07T11:52:58.215Z,12.97
2018-03-07T11:54:01.572Z,12.98
2018-03-07T11:55:05.032Z,13.00
2018-03-07T11:56:08.504Z,13.02
2018-03-07T11:57:11.816Z,13.05
2018-03-07T11:58:15.170Z,13.07
2018-03-07T11:59:18.740Z,13.08
2018-03-07T12:00:22.112Z,13.08
2018-03-07T12:01:25.546Z,13.08
2018-03-07T12:02:30.585Z,13.10
2018-03-07T12:03:34.040Z,13.12
2018-03-07T12:04:37.360Z,13.14
2018-03-07T12:05:40.695Z,13.16
2018-03-07T12:06:44.084Z,13.17
2018-03-07T12:07:47.455Z,13.15
2018-03-07T12:08:50.806Z,13.14
2018-03-07T12:09:54.196Z,13.15
2018-03-07T12:10:57.812Z,13.15
2018-03-07T12:12:01.207Z,13.15
2018-03-07T12:13:04.559Z,13.13
2018-03-07T12:14:07.957Z,13.11
2018-03-07T12:15:11.644Z,13.08
2018-03-07T12:16:15.042Z,13.05
2018-03-07T12:17:18.449Z,13.03
2018-03-07T12:18:21.823Z,13.01
2018-03-07T12:19:25.205Z,13.01
2018-03-07T12:20:28.634Z,13.00
2018-03-07T12:21:31.952Z,12.99
2018-03-07T12:22:35.323Z,12.99
2018-03-07T12:23:38.724Z,12.97
2018-03-07T12:24:42.196Z,12.97
2018-03-07T12:25:45.537Z,12.98
2018-03-07T12:26:48.880Z,13.00
2018-03-07T12:29:01.823Z,13.05
2018-03-07T12:30:05.161Z,13.07
2018-03-07T12:31:08.511Z,13.10
2018-03-07T12:32:11.848Z,13.12
2018-03-07T12:33:15.264Z,13.12
2018-03-07T12:34:18.653Z,13.13
2018-03-07T12:35:22.046Z,13.12
2018-03-07T12:36:25.439Z,13.12
2018-03-07T12:37:29.075Z,13.12
2018-03-07T12:38:32.495Z,13.13
2018-03-07T12:39:35.946Z,13.17
2018-03-07T12:40:39.273Z,13.21
2018-03-07T12:41:42.794Z,13.25
2018-03-07T12:42:46.109Z,13.28
2018-03-07T12:43:49.521Z,13.30
2018-03-07T12:44:52.834Z,13.33
2018-03-07T12:45:56.167Z,13.35
2018-03-07T12:46:59.799Z,13.38
2018-03-07T12:48:03.103Z,13.41
2018-03-07T12:49:06.582Z,13.44
2018-03-07T12:50:09.886Z,13.48
2018-03-07T12:51:13.236Z,13.51
2018-03-07T12:52:16.737Z,13.54
2018-03-07T12:53:21.572Z,13.57
2018-03-07T12:54:24.943Z,13.59
2018-03-07T12:55:28.258Z,13.64
2018-03-07T12:56:31.660Z,13.69
2018-03-07T12:57:35.875Z,13.72
2018-03-07T12:58:39.243Z,13.76
2018-03-07T12:59:42.648Z,13.80
2018-03-07T13:00:46.347Z,13.84
2018-03-07T13:01:49.720Z,13.86
2018-03-07T13:02:53.075Z,13.88
2018-03-07T13:03:56.397Z,13.91
2018-03-07T13:04:59.892Z,13.93
2018-03-07T13:06:03.207Z,13.95
2018-03-07T13:07:06.685Z,13.98
2018-03-07T13:08:10.126Z,14.00
2018-03-07T13:09:13.563Z,14.03
2018-03-07T13:10:17.001Z,14.04
2018-03-07T13:11:20.327Z,14.05
2018-03-07T13:12:23.891Z,14.05
2018-03-07T13:13:27.208Z,14.05
2018-03-07T13:14:30.705Z,14.05
2018-03-07T13:15:34.082Z,14.08
2018-03-07T13:16:37.407Z,14.09
2018-03-07T13:17:40.761Z,14.12
2018-03-07T13:18:44.167Z,14.13
2018-03-07T13:19:48.153Z,14.15
2018-03-07T13:20:52.416Z,14.13
2018-03-07T13:21:56.166Z,14.11
2018-03-07T13:22:59.482Z,14.09
2018-03-07T13:24:02.877Z,14.08
2018-03-07T13:25:06.308Z,14.06
2018-03-07T13:26:09.727Z,14.05
2018-03-07T13:27:13.061Z,14.04
2018-03-07T13:28:16.491Z,14.04
2018-03-07T13:29:19.858Z,14.03
2018-03-07T13:30:23.318Z,14.03
2018-03-07T13:31:26.747Z,14.03
2018-03-07T13:32:30.173Z,14.04
2018-03-07T13:33:33.793Z,14.04
2018-03-07T13:34:37.203Z,14.04
2018-03-07T13:35:40.616Z,14.04
2018-03-07T13:36:43.950Z,14.02
2018-03-07T13:37:47.607Z,13.99
2018-03-07T13:38:51.258Z,13.97